Time;durP1;ratioP1;P1;durP2;ratioP2;P2;SDS_P1;SDS_P2;PMS_P1;PMS_P2;Temp;Humidity;BMP_temperature;BMP_pressure;BME280_temperature;BME280_humidity;BME280_pressure;Samples;Min_cycle;Max_cycle;Signal;HPM_P1;HPM_P2
2023/03/03 00:01:06;;;;;;;;;;;;;;;16.08;46.64;101206.84;4999092;28;1969;-50
2023/03/03 00:03:31;;;;;;;;;;;;;;;17.36;44.57;101211.63;4986558;28;1005;-46
2023/03/03 00:05:57;;;;;;;;;;;;;;;16.39;46.63;101201.63;4998865;28;1049;-51
2023/03/03 00:08:23;;;;;;;;;;;;;;;16.10;46.06;101200.25;5013912;28;1191;-46
2023/03/03 00:10:48;;;;;;;;;;;;;;;16.32;46.43;101197.44;4998733;28;1060;-47
2023/03/03 00:13:21;;;;;;;;;;;;;;;16.62;46.04;101201.50;4998978;28;1212;-45
2023/03/03 00:15:46;;;;;;;;;;;;;;;16.02;46.84;101194.16;4998648;28;1056;-48
2023/03/03 00:18:30;;;;;;;;;;;;;;;16.85;45.77;101203.06;4998950;28;1104;-47
2023/03/03 00:20:57;;;;;;;;;;;;;;;16.67;45.97;101196.06;4998514;28;1137;-52
2023/03/03 00:23:25;;;;;;;;;;;;;;;16.15;46.47;101203.06;4998251;28;1156;-47
2023/03/03 00:25:52;;;;;;;;;;;;;;;17.48;44.52;101191.31;4998735;28;1099;-48
2023/03/03 00:28:18;;;;;;;;;;;;;;;16.42;46.25;101187.38;4998704;28;998;-48
2023/03/03 00:30:43;;;;;;;;;;;;;;;16.15;46.18;101187.41;4998694;28;1117;-49
2023/03/03 00:33:18;;;;;;;;;;;;;;;17.28;45.09;101192.88;4998378;28;1036;-49
2023/03/03 00:35:43;;;;;;;;;;;;;;;16.24;46.63;101190.50;5013775;28;1200;-46
2023/03/03 00:38:10;;;;;;;;;;;;;;;16.08;46.15;101181.31;4998049;28;1154;-50
2023/03/03 00:40:36;;;;;;;;;;;;;;;15.84;46.09;101180.81;4998078;28;1069;-47
2023/03/03 00:43:01;;;;;;;;;;;;;;;17.07;45.34;101175.47;4998057;28;1915;-47
2023/03/03 00:45:38;;;;;;;;;;;;;;;16.22;46.37;101170.75;4996562;28;1049;-47
2023/03/03 00:48:18;;;;;;;;;;;;;;;16.27;46.62;101168.06;5013679;28;1207;-51
2023/03/03 00:50:44;;;;;;;;;;;;;;;16.52;46.36;101164.69;4998240;28;1069;-50
2023/03/03 00:53:10;;;;;;;;;;;;;;;16.04;46.77;101167.28;4998129;28;1168;-51
2023/03/03 00:55:36;;;;;;;;;;;;;;;17.76;43.70;101155.06;4998192;28;1115;-47
2023/03/03 00:58:02;;;;;;;;;;;;;;;16.51;46.10;101162.16;4980695;28;1175;-51
2023/03/03 01:00:32;;;;;;;;;;;;;;;16.95;45.95;101153.69;4980134;28;1234;-45
2023/03/03 01:03:02;;;;;;;;;;;;;;;16.88;45.81;101162.16;4997225;28;1910;-51
2023/03/03 01:05:28;;;;;;;;;;;;;;;16.82;46.22;101156.91;4998042;28;1299;-49
2023/03/03 01:07:53;;;;;;;;;;;;;;;18.39;42.57;101148.53;5012772;28;1103;-50
2023/03/03 01:10:19;;;;;;;;;;;;;;;16.95;45.67;101150.94;4997603;28;1053;-46
2023/03/03 01:12:45;;;;;;;;;;;;;;;16.51;45.81;101141.06;4997846;28;1147;-50
2023/03/03 01:15:11;;;;;;;;;;;;;;;16.31;45.45;101143.66;4997802;28;1157;-49
2023/03/03 01:17:38;;;;;;;;;;;;;;;17.28;44.86;101137.91;4997627;28;938;-51
2023/03/03 01:20:05;;;;;;;;;;;;;;;16.47;46.30;101130.88;4980086;28;1310;-48
2023/03/03 01:22:31;;;;;;;;;;;;;;;16.90;45.85;101137.19;4997680;28;1907;-50
2023/03/03 01:24:56;;;;;;;;;;;;;;;16.75;45.75;101126.94;4997735;28;1115;-48
2023/03/03 01:27:22;;;;;;;;;;;;;;;16.33;45.95;101133.25;4997641;28;1151;-44
2023/03/03 01:29:47;;;;;;;;;;;;;;;16.29;46.40;101127.44;4979717;28;870;-50
2023/03/03 01:32:13;;;;;;;;;;;;;;;17.03;45.44;101127.66;4997376;28;1064;-48
2023/03/03 01:34:38;;;;;;;;;;;;;;;16.28;46.23;101131.28;4997535;28;1223;-46
2023/03/03 01:37:04;;;;;;;;;;;;;;;16.11;45.78;101125.94;4997554;28;1120;-48
2023/03/03 01:39:30;;;;;;;;;;;;;;;16.87;45.52;101123.94;4997441;28;1424;-46
2023/03/03 01:41:55;;;;;;;;;;;;;;;16.47;46.38;101117.16;5012110;28;1977;-50
2023/03/03 01:44:21;;;;;;;;;;;;;;;16.95;45.90;101109.75;4997289;28;1187;-48
2023/03/03 01:47:03;;;;;;;;;;;;;;;17.92;43.46;101114.69;4997360;28;1183;-47
2023/03/03 01:49:30;;;;;;;;;;;;;;;16.52;46.03;101114.41;5012151;28;1048;-48
2023/03/03 01:51:57;;;;;;;;;;;;;;;16.21;46.28;101111.47;5011735;28;1222;-46
2023/03/03 01:54:39;;;;;;;;;;;;;;;16.05;45.71;101113.28;4997115;28;1172;-47
2023/03/03 01:57:05;;;;;;;;;;;;;;;17.37;44.97;101108.78;5011978;28;1033;-47
2023/03/03 01:59:33;;;;;;;;;;;;;;;16.35;46.50;101115.41;4979419;28;1216;-50
2023/03/03 02:01:58;;;;;;;;;;;;;;;16.59;46.18;101109.53;5012219;28;2053;-45
2023/03/03 02:04:25;;;;;;;;;;;;;;;16.88;45.76;101109.97;4996714;28;1100;-48
2023/03/03 02:06:53;;;;;;;;;;;;;;;16.30;46.54;101107.16;5012045;28;1232;-51
2023/03/03 02:09:34;;;;;;;;;;;;;;;16.79;45.97;101107.97;4979594;28;1294;-47
2023/03/03 02:12:00;;;;;;;;;;;;;;;16.85;45.80;101102.25;4996578;28;1089;-45
2023/03/03 02:14:26;;;;;;;;;;;;;;;16.29;46.38;101104.69;5011538;28;1060;-45
2023/03/03 02:16:52;;;;;;;;;;;;;;;16.96;45.87;101107.81;4996232;28;1001;-48
2023/03/03 02:19:20;;;;;;;;;;;;;;;16.56;46.24;101108.16;5012058;28;1099;-49
2023/03/03 02:21:47;;;;;;;;;;;;;;;16.12;46.10;101110.28;4979163;28;2042;-44
2023/03/03 02:24:25;;;;;;;;;;;;;;;15.99;46.63;101101.44;4978771;28;1080;-48
2023/03/03 02:26:50;;;;;;;;;;;;;;;16.97;45.66;101101.22;5011935;28;1131;-45
2023/03/03 02:29:16;;;;;;;;;;;;;;;16.23;46.38;101101.06;5011576;28;1119;-50
2023/03/03 02:31:42;;;;;;;;;;;;;;;15.98;46.09;101099.78;4996808;28;1056;-47
2023/03/03 02:34:08;;;;;;;;;;;;;;;15.79;45.77;101109.44;4996386;28;1073;-49
2023/03/03 02:36:34;;;;;;;;;;;;;;;17.05;45.13;101107.03;4990868;28;1022;-51
2023/03/03 02:39:17;;;;;;;;;;;;;;;16.13;46.49;101104.56;4997625;28;1100;-46
2023/03/03 02:41:45;;;;;;;;;;;;;;;15.86;46.26;101099.13;4996277;28;1985;-48
2023/03/03 02:44:12;;;;;;;;;;;;;;;17.22;44.83;101106.84;4981743;28;1322;-48
2023/03/03 02:46:39;;;;;;;;;;;;;;;16.18;46.55;101103.75;4996645;28;1024;-48
2023/03/03 02:49:05;;;;;;;;;;;;;;;15.89;46.31;101101.31;4996668;28;1179;-45
2023/03/03 02:51:31;;;;;;;;;;;;;;;17.00;45.46;101101.53;4979143;28;1170;-48
2023/03/03 02:53:56;;;;;;;;;;;;;;;16.30;46.25;101098.06;4996649;28;838;-50
2023/03/03 02:56:24;;;;;;;;;;;;;;;15.81;46.86;101105.38;4979127;28;1153;-49
2023/03/03 02:58:50;;;;;;;;;;;;;;;16.75;45.98;101105.78;4996449;28;1182;-47
2023/03/03 03:01:16;;;;;;;;;;;;;;;16.25;46.61;101096.13;5011608;28;1906;-46
2023/03/03 03:03:42;;;;;;;;;;;;;;;17.65;44.38;101103.09;4978717;28;1378;-46
2023/03/03 03:06:08;;;;;;;;;;;;;;;17.75;43.84;101095.69;4995879;28;1044;-49
2023/03/03 03:08:34;;;;;;;;;;;;;;;16.59;46.01;101095.78;5011588;28;1240;-48
2023/03/03 03:11:00;;;;;;;;;;;;;;;16.33;45.87;101086.59;4996373;28;1212;-51
2023/03/03 03:13:26;;;;;;;;;;;;;;;17.47;44.89;101088.75;4979107;28;1254;-45
2023/03/03 03:15:52;;;;;;;;;;;;;;;16.48;46.20;101089.44;4978655;28;1208;-46
2023/03/03 03:18:18;;;;;;;;;;;;;;;16.11;46.41;101086.72;4996176;28;963;-47
2023/03/03 03:20:44;;;;;;;;;;;;;;;16.03;45.55;101086.09;4978913;28;1139;-47
2023/03/03 03:23:10;;;;;;;;;;;;;;;16.73;45.99;101087.91;4996501;28;1914;-50
2023/03/03 03:25:44;;;;;;;;;;;;;;;16.14;46.49;101087.00;4978842;28;1170;-47
2023/03/03 03:28:12;;;;;;;;;;;;;;;17.52;44.75;101083.25;4981883;28;1182;-51
2023/03/03 03:30:38;;;;;;;;;;;;;;;16.62;46.12;101088.94;4982033;28;1172;-48
2023/03/03 03:33:05;;;;;;;;;;;;;;;16.20;46.40;101091.44;4982251;28;1336;-49
2023/03/03 03:35:34;;;;;;;;;;;;;;;16.75;46.08;101086.53;4982068;28;1165;-50
2023/03/03 03:37:59;;;;;;;;;;;;;;;16.65;46.21;101091.16;4982215;28;1256;-48
2023/03/03 03:40:25;;;;;;;;;;;;;;;16.18;46.84;101087.31;4982114;28;1159;-46
2023/03/03 03:42:51;;;;;;;;;;;;;;;17.83;43.85;101076.97;4998928;28;1906;-47
2023/03/03 03:45:17;;;;;;;;;;;;;;;16.61;46.07;101082.63;4978602;28;1816;-49
2023/03/03 03:47:45;;;;;;;;;;;;;;;16.30;45.81;101079.72;4978806;28;1334;-51
2023/03/03 03:50:12;;;;;;;;;;;;;;;15.97;45.69;101076.16;4978675;28;1486;-46
2023/03/03 03:52:38;;;;;;;;;;;;;;;16.30;45.97;101070.63;4978736;28;1130;-46
2023/03/03 03:55:04;;;;;;;;;;;;;;;16.61;45.86;101074.41;4978383;28;1422;-48
2023/03/03 03:57:30;;;;;;;;;;;;;;;15.99;46.80;101079.50;4979909;28;1179;-48
2023/03/03 03:59:55;;;;;;;;;;;;;;;17.64;44.44;101071.19;4978434;28;1111;-47
2023/03/03 04:02:21;;;;;;;;;;;;;;;16.58;46.05;101070.25;4978578;28;1910;-45
2023/03/03 04:04:47;;;;;;;;;;;;;;;16.14;46.35;101062.28;4978079;28;1174;-46
2023/03/03 04:07:13;;;;;;;;;;;;;;;17.23;45.04;101060.94;4978008;28;1127;-48
2023/03/03 04:09:39;;;;;;;;;;;;;;;16.23;46.70;101057.16;4978428;28;1218;-46
2023/03/03 04:12:05;;;;;;;;;;;;;;;17.44;44.83;101070.03;4979606;28;1064;-50
2023/03/03 04:14:31;;;;;;;;;;;;;;;17.21;45.10;101063.16;4978213;28;1081;-49
2023/03/03 04:16:57;;;;;;;;;;;;;;;16.33;46.56;101050.91;4977968;28;1310;-47
2023/03/03 04:19:23;;;;;;;;;;;;;;;17.39;45.12;101057.13;4979531;28;935;-46
2023/03/03 04:21:50;;;;;;;;;;;;;;;16.54;46.35;101057.34;4978281;28;1907;-46
2023/03/03 04:24:18;;;;;;;;;;;;;;;16.16;46.25;101057.38;4978314;28;1077;-48
2023/03/03 04:26:44;;;;;;;;;;;;;;;16.03;45.63;101064.16;4978293;28;1157;-47
2023/03/03 04:29:10;;;;;;;;;;;;;;;17.41;44.50;101052.16;4979129;28;1002;-50
2023/03/03 04:31:36;;;;;;;;;;;;;;;16.39;46.18;101050.66;4980580;28;1363;-50
2023/03/03 04:34:04;;;;;;;;;;;;;;;16.85;45.88;101054.75;4977944;28;1161;-52
2023/03/03 04:36:30;;;;;;;;;;;;;;;16.83;45.64;101051.44;4977517;28;1177;-56
2023/03/03 04:38:57;;;;;;;;;;;;;;;16.18;46.69;101041.47;4977125;28;1279;-48
2023/03/03 04:41:23;;;;;;;;;;;;;;;16.12;46.19;101044.44;4976963;28;1914;-51
2023/03/03 04:43:48;;;;;;;;;;;;;;;15.85;45.84;101050.84;4977344;28;1265;-50
2023/03/03 04:46:14;;;;;;;;;;;;;;;15.81;45.34;101044.22;4976577;28;1148;-50
2023/03/03 04:48:39;;;;;;;;;;;;;;;16.63;45.63;101052.97;4977619;28;1214;-51
2023/03/03 04:51:05;;;;;;;;;;;;;;;16.25;46.47;101052.22;4977556;28;1069;-47
2023/03/03 04:53:33;;;;;;;;;;;;;;;15.93;46.49;101057.75;4977225;28;1142;-54
2023/03/03 04:55:58;;;;;;;;;;;;;;;15.62;46.17;101055.53;4978795;28;1129;-61
2023/03/03 04:58:24;;;;;;;;;;;;;;;16.84;45.70;101058.56;4976931;28;1410;-58
2023/03/03 05:00:55;;;;;;;;;;;;;;;16.38;46.28;101057.25;4977090;28;1378;-56
2023/03/03 05:03:21;;;;;;;;;;;;;;;15.91;46.32;101055.28;4978756;28;1910;-54
2023/03/03 05:05:46;;;;;;;;;;;;;;;16.46;46.58;101061.41;5009630;28;1188;-55
2023/03/03 05:08:12;;;;;;;;;;;;;;;16.66;46.07;101060.72;4978474;28;1247;-56
2023/03/03 05:10:38;;;;;;;;;;;;;;;16.11;47.17;101060.09;4978221;28;1036;-52
2023/03/03 05:13:04;;;;;;;;;;;;;;;18.01;43.91;101065.44;4977963;28;1248;-53
2023/03/03 05:15:29;;;;;;;;;;;;;;;16.55;46.28;101054.34;4978186;28;1152;-56
2023/03/03 05:17:55;;;;;;;;;;;;;;;16.23;46.30;101062.66;4977528;28;1192;-51
2023/03/03 05:20:21;;;;;;;;;;;;;;;15.94;46.02;101064.91;4978673;28;1205;-53
2023/03/03 05:22:47;;;;;;;;;;;;;;;17.00;45.47;101071.31;4978247;28;1910;-51
2023/03/03 05:25:12;;;;;;;;;;;;;;;16.22;47.01;101069.22;4977959;28;1169;-51
2023/03/03 05:27:38;;;;;;;;;;;;;;;18.12;43.39;101075.34;4977991;28;1116;-52
2023/03/03 05:30:04;;;;;;;;;;;;;;;17.30;45.00;101069.75;4977890;28;1040;-49
2023/03/03 05:32:29;;;;;;;;;;;;;;;16.53;45.98;101070.22;4977936;28;1080;-52
2023/03/03 05:34:55;;;;;;;;;;;;;;;16.21;46.11;101079.34;4977828;28;1117;-50
2023/03/03 05:37:22;;;;;;;;;;;;;;;16.68;46.06;101082.41;4977679;28;1176;-50
2023/03/03 05:39:47;;;;;;;;;;;;;;;16.50;46.20;101078.19;4978115;28;1080;-52
2023/03/03 05:42:13;;;;;;;;;;;;;;;16.12;46.23;101071.88;4977027;28;1899;-53
2023/03/03 05:44:39;;;;;;;;;;;;;;;16.38;46.47;101073.72;5009084;28;1187;-52
2023/03/03 05:47:04;;;;;;;;;;;;;;;16.76;46.10;101079.97;4977622;28;1395;-53
2023/03/03 05:49:30;;;;;;;;;;;;;;;16.24;46.38;101078.00;4977348;28;1053;-53
2023/03/03 05:51:55;;;;;;;;;;;;;;;17.21;45.08;101074.13;4977388;28;1115;-52
2023/03/03 05:54:21;;;;;;;;;;;;;;;16.61;46.07;101074.41;4977523;28;1033;-53
2023/03/03 05:56:46;;;;;;;;;;;;;;;16.06;46.53;101080.09;4977257;28;1244;-52
2023/03/03 05:59:12;;;;;;;;;;;;;;;17.09;45.26;101079.84;4977366;28;1077;-54
2023/03/03 06:01:38;;;;;;;;;;;;;;;16.26;46.45;101081.31;4977651;28;1887;-51
2023/03/03 06:04:03;;;;;;;;;;;;;;;16.80;46.05;101076.69;4977560;28;1049;-50
2023/03/03 06:06:29;;;;;;;;;;;;;;;16.63;46.26;101077.69;4977113;28;1121;-54
2023/03/03 06:08:54;;;;;;;;;;;;;;;16.16;46.29;101064.78;4977671;28;1036;-49
2023/03/03 06:11:20;;;;;;;;;;;;;;;15.94;45.92;101071.22;4977451;28;1073;-51
2023/03/03 06:13:45;;;;;;;;;;;;;;;16.88;45.60;101071.53;5008849;28;1265;-48
2023/03/03 06:16:11;;;;;;;;;;;;;;;16.24;47.36;101070.63;4976930;28;1155;-49
2023/03/03 06:18:37;;;;;;;;;;;;;;;16.29;46.77;101060.78;4976742;28;1141;-49
2023/03/03 06:21:02;;;;;;;;;;;;;;;16.06;47.50;101079.25;4977162;28;1152;-47
2023/03/03 06:23:28;;;;;;;;;;;;;;;15.86;47.77;101075.25;4976978;28;1979;-52
2023/03/03 06:25:54;;;;;;;;;;;;;;;15.74;48.08;101075.41;4977399;28;1215;-52
2023/03/03 06:28:19;;;;;;;;;;;;;;;15.61;48.13;101066.78;4977029;28;1196;-48
2023/03/03 06:30:45;;;;;;;;;;;;;;;15.44;48.65;101069.63;4976714;28;1048;-50
2023/03/03 06:33:10;;;;;;;;;;;;;;;15.36;48.82;101071.75;4976693;28;1189;-52
2023/03/03 06:35:36;;;;;;;;;;;;;;;16.09;47.22;101073.25;4977155;28;1235;-52
2023/03/03 06:38:02;;;;;;;;;;;;;;;17.07;44.63;101079.31;4977676;28;1196;-50
2023/03/03 06:40:27;;;;;;;;;;;;;;;16.14;46.79;101077.94;4977169;28;1076;-54
2023/03/03 06:42:53;;;;;;;;;;;;;;;15.75;47.82;101073.47;4976891;28;1915;-53
2023/03/03 06:45:18;;;;;;;;;;;;;;;15.54;48.03;101081.53;4993666;28;1080;-50
2023/03/03 06:47:44;;;;;;;;;;;;;;;15.39;48.74;101075.91;5011686;28;1151;-52
2023/03/03 06:50:10;;;;;;;;;;;;;;;16.96;44.92;101088.56;4996628;28;1187;-54
2023/03/03 06:52:36;;;;;;;;;;;;;;;17.09;44.24;101080.66;4996187;28;1097;-53
2023/03/03 06:55:08;;;;;;;;;;;;;;;16.21;46.22;101084.03;4995949;28;1152;-51
2023/03/03 06:57:35;;;;;;;;;;;;;;;15.84;47.26;101077.44;5011857;28;1092;-52
2023/03/03 07:00:21;;;;;;;;;;;;;;;15.66;47.79;101089.56;4996758;28;1183;-54
2023/03/03 07:02:47;;;;;;;;;;;;;;;15.44;48.15;101083.34;4998893;28;1902;-55
2023/03/03 07:05:14;;;;;;;;;;;;;;;15.85;47.39;101072.75;5015675;28;1047;-48
2023/03/03 07:07:39;;;;;;;;;;;;;;;17.34;43.75;101087.34;5000303;28;1183;-50
2023/03/03 07:10:06;;;;;;;;;;;;;;;16.95;44.50;101086.94;5000360;28;1116;-54
2023/03/03 07:12:32;;;;;;;;;;;;;;;16.19;46.62;101084.28;5000367;28;1143;-54
2023/03/03 07:15:17;;;;;;;;;;;;;;;15.89;47.07;101074.75;5015481;28;1184;-49
2023/03/03 07:17:44;;;;;;;;;;;;;;;15.67;47.57;101072.06;5015133;28;1127;-53
2023/03/03 07:20:23;;;;;;;;;;;;;;;16.56;45.81;101066.13;5000125;28;873;-51
2023/03/03 07:22:48;;;;;;;;;;;;;;;17.39;43.35;101070.88;5000146;28;1979;-53
2023/03/03 07:25:29;;;;;;;;;;;;;;;16.41;45.75;101067.69;5000279;28;1195;-53
2023/03/03 07:27:57;;;;;;;;;;;;;;;15.96;47.09;101071.75;4988359;28;1209;-51
2023/03/03 07:30:23;;;;;;;;;;;;;;;15.73;47.59;101062.78;4999917;28;1049;-51
2023/03/03 07:32:49;;;;;;;;;;;;;;;15.53;47.93;101071.66;4999175;28;891;-51
2023/03/03 07:35:21;;;;;;;;;;;;;;;15.45;48.08;101052.94;4999367;28;1037;-52
2023/03/03 07:37:46;;;;;;;;;;;;;;;16.18;46.59;101059.88;4998829;28;1216;-50
2023/03/03 07:40:31;;;;;;;;;;;;;;;17.44;43.35;101054.38;4999919;28;1121;-54
2023/03/03 07:42:56;;;;;;;;;;;;;;;16.31;46.10;101055.81;4999262;28;1906;-51
2023/03/03 07:45:35;;;;;;;;;;;;;;;15.87;46.99;101065.13;4982313;28;1200;-54
2023/03/03 07:48:20;;;;;;;;;;;;;;;15.67;47.42;101050.13;5014507;28;1095;-54
2023/03/03 07:50:47;;;;;;;;;;;;;;;15.49;47.97;101058.72;4999718;28;1044;-52
2023/03/03 07:53:20;;;;;;;;;;;;;;;15.90;47.01;101051.69;4999402;28;1045;-52
2023/03/03 07:55:46;;;;;;;;;;;;;;;17.41;43.48;101052.16;5021658;28;1183;-53
2023/03/03 07:58:13;;;;;;;;;;;;;;;16.75;44.79;101048.09;4999774;28;1164;-52
2023/03/03 08:00:39;;;;;;;;;;;;;;;16.17;46.28;101039.00;4999379;28;1072;-51
2023/03/03 08:03:07;;;;;;;;;;;;;;;15.86;47.01;101044.25;4998505;28;1918;-54
2023/03/03 08:05:36;;;;;;;;;;;;;;;15.66;47.62;101042.97;5014613;28;1055;-54
2023/03/03 08:08:09;;;;;;;;;;;;;;;15.46;48.04;101042.78;5014140;28;1088;-54
2023/03/03 08:10:36;;;;;;;;;;;;;;;16.12;46.68;101042.53;5014461;28;1230;-55
2023/03/03 08:13:04;;;;;;;;;;;;;;;17.45;43.59;101050.53;4997954;28;1081;-51
2023/03/03 08:15:30;;;;;;;;;;;;;;;16.52;45.55;101043.03;5014517;28;1075;-50
2023/03/03 08:17:56;;;;;;;;;;;;;;;16.03;46.51;101042.22;4998960;28;1136;-54
2023/03/03 08:20:30;;;;;;;;;;;;;;;15.70;47.70;101035.88;4998982;28;1140;-49
2023/03/03 08:22:56;;;;;;;;;;;;;;;15.51;48.05;101040.09;4986006;28;1979;-50
2023/03/03 08:25:21;;;;;;;;;;;;;;;15.38;48.35;101035.88;4998225;28;1088;-52
2023/03/03 08:27:47;;;;;;;;;;;;;;;15.60;47.89;101038.53;4999118;28;1307;-48
2023/03/03 08:30:13;;;;;;;;;;;;;;;17.18;43.94;101033.44;4999011;28;1203;-48
2023/03/03 08:32:38;;;;;;;;;;;;;;;16.80;44.62;101035.50;4998298;28;1017;-55
2023/03/03 08:35:04;;;;;;;;;;;;;;;16.07;46.40;101035.13;4998561;28;1037;-54
2023/03/03 08:37:29;;;;;;;;;;;;;;;15.77;47.27;101029.34;4998741;28;1270;-55
2023/03/03 08:39:55;;;;;;;;;;;;;;;15.57;47.50;101028.94;4999022;28;1227;-53
2023/03/03 08:42:21;;;;;;;;;;;;;;;15.44;48.12;101040.31;4998902;28;1910;-55
2023/03/03 08:44:46;;;;;;;;;;;;;;;15.93;47.05;101041.31;4997698;28;1093;-54
2023/03/03 08:47:12;;;;;;;;;;;;;;;17.34;43.51;101046.13;4997773;28;1196;-53
2023/03/03 08:49:38;;;;;;;;;;;;;;;16.50;45.34;101039.75;4986593;28;1274;-58
2023/03/03 08:52:04;;;;;;;;;;;;;;;15.88;46.78;101037.44;4986464;28;1089;-57
2023/03/03 08:54:30;;;;;;;;;;;;;;;15.66;47.42;101039.41;4992277;28;874;-57
2023/03/03 08:56:55;;;;;;;;;;;;;;;15.48;48.00;101037.88;4990796;28;1108;-58
2023/03/03 08:59:21;;;;;;;;;;;;;;;16.57;45.22;101034.84;4991357;28;873;-57
2023/03/03 09:01:46;;;;;;;;;;;;;;;17.10;43.78;101035.63;4990231;28;1902;-56
2023/03/03 09:04:12;;;;;;;;;;;;;;;16.11;46.39;101032.66;4989815;28;996;-57
2023/03/03 09:06:38;;;;;;;;;;;;;;;15.80;47.11;101031.63;4990813;28;842;-51
2023/03/03 09:09:03;;;;;;;;;;;;;;;15.59;47.50;101028.66;4991623;28;841;-57
2023/03/03 09:11:29;;;;;;;;;;;;;;;15.49;48.00;101032.13;4988757;28;989;-53
2023/03/03 09:14:10;;;;;;;;;;;;;;;17.06;44.04;101031.75;4989309;28;1199;-54
2023/03/03 09:16:37;;;;;;;;;;;;;;;16.58;45.21;101036.50;4982989;28;973;-50
2023/03/03 09:19:23;;;;;;;;;;;;;;;15.96;46.82;101032.53;4989326;28;1048;-56
2023/03/03 09:21:50;;;;;;;;;;;;;;;15.67;47.29;101016.38;4988214;28;2003;-58
2023/03/03 09:24:27;;;;;;;;;;;;;;;15.51;47.59;101021.72;5009988;28;902;-51
2023/03/03 09:26:53;;;;;;;;;;;;;;;15.36;48.00;101011.47;4990822;28;927;-56
2023/03/03 09:29:27;;;;;;;;;;;;;;;16.57;45.35;101013.69;4990475;28;953;-59
2023/03/03 09:31:53;;;;;;;;;;;;;;;17.18;43.54;101011.44;4987636;28;897;-59
2023/03/03 09:34:21;;;;;;;;;;;;;;;16.21;46.20;101001.72;4989871;28;936;-56
2023/03/03 09:36:48;;;;;;;;;;;;;;;15.78;46.86;100989.88;4989660;28;946;-55
2023/03/03 09:39:24;;;;;;;;;;;;;;;15.55;47.76;101000.94;4990776;28;915;-57
2023/03/03 09:41:49;;;;;;;;;;;;;;;15.43;47.93;101003.03;4988183;28;1934;-58
2023/03/03 09:44:16;;;;;;;;;;;;;;;16.39;45.80;100998.50;4991181;28;1201;-55
2023/03/03 09:47:01;;;;;;;;;;;;;;;17.55;42.82;101000.22;4990961;28;889;-50
2023/03/03 09:49:31;;;;;;;;;;;;;;;16.45;45.53;101001.28;4990826;28;855;-50
2023/03/03 09:51:57;;;;;;;;;;;;;;;15.95;46.81;100990.59;4988611;28;859;-52
2023/03/03 09:54:27;;;;;;;;;;;;;;;15.68;47.22;100991.47;4991116;28;906;-48
2023/03/03 09:56:55;;;;;;;;;;;;;;;15.56;47.49;100985.34;5011553;28;1159;-54
2023/03/03 09:59:33;;;;;;;;;;;;;;;15.51;47.83;100982.53;5011201;28;904;-55
2023/03/03 10:02:07;;;;;;;;;;;;;;;17.19;43.86;100971.88;5012812;28;1941;-47
2023/03/03 10:04:36;;;;;;;;;;;;;;;16.49;45.38;100969.47;4990126;28;826;-53
2023/03/03 10:07:04;;;;;;;;;;;;;;;15.94;46.67;100958.75;4989351;28;883;-53
2023/03/03 10:09:36;;;;;;;;;;;;;;;15.66;47.33;100960.72;4990412;28;919;-48
2023/03/03 10:12:08;;;;;;;;;;;;;;;15.50;47.50;100958.97;4990167;28;919;-51
2023/03/03 10:14:33;;;;;;;;;;;;;;;15.31;48.29;100953.06;4991424;28;1475;-54
2023/03/03 10:17:14;;;;;;;;;;;;;;;16.76;44.55;100950.91;4988541;28;866;-52
2023/03/03 10:19:55;;;;;;;;;;;;;;;17.08;43.71;100947.16;4990125;28;896;-60
2023/03/03 10:22:23;;;;;;;;;;;;;;;16.12;46.08;100940.19;4987255;28;1906;-55
2023/03/03 10:24:55;;;;;;;;;;;;;;;15.77;46.84;100938.88;4991070;28;861;-55
2023/03/03 10:27:40;;;;;;;;;;;;;;;15.56;47.42;100933.25;5011809;28;883;-54
2023/03/03 10:30:18;;;;;;;;;;;;;;;16.26;45.97;100933.16;5010779;28;876;-55
2023/03/03 10:32:50;;;;;;;;;;;;;;;17.53;42.95;100924.59;4990762;28;1186;-57
2023/03/03 10:35:25;;;;;;;;;;;;;;;16.36;45.43;100930.44;5010403;28;1009;-58
2023/03/03 10:38:01;;;;;;;;;;;;;;;15.88;46.81;100938.72;4998500;28;1110;-57
2023/03/03 10:40:31;;;;;;;;;;;;;;;15.69;47.22;100932.78;5002618;28;1040;-59
2023/03/03 10:43:00;;;;;;;;;;;;;;;15.51;47.46;100925.00;5014305;28;1902;-59
2023/03/03 10:45:31;;;;;;;;;;;;;;;15.36;48.15;100929.28;4998985;28;1198;-58
2023/03/03 10:48:09;;;;;;;;;;;;;;;16.02;46.56;100919.88;5014012;28;854;-58
2023/03/03 10:50:41;;;;;;;;;;;;;;;17.43;43.04;100929.03;5014555;28;1077;-59
2023/03/03 10:53:06;;;;;;;;;;;;;;;16.37;45.58;100921.13;4999135;28;965;-58
2023/03/03 10:56:02;;;;;;;;;;;;;;;15.90;46.52;100916.50;4999565;28;1107;-57
2023/03/03 10:58:31;;;;;;;;;;;;;;;15.64;47.15;100912.75;4973981;28;1093;-60
2023/03/03 11:00:56;;;;;;;;;;;;;;;15.47;47.78;100904.69;4998992;28;947;-59
2023/03/03 11:03:22;;;;;;;;;;;;;;;16.02;46.28;100908.91;4999450;28;1915;-60
2023/03/03 11:05:52;;;;;;;;;;;;;;;17.40;43.35;100884.75;4999563;28;1013;-60
2023/03/03 11:08:36;;;;;;;;;;;;;;;16.67;44.74;100889.34;5014054;28;1103;-60
2023/03/03 11:11:05;;;;;;;;;;;;;;;15.98;46.28;100887.75;4986599;28;1016;-59
2023/03/03 11:13:40;;;;;;;;;;;;;;;15.74;46.90;100874.44;4998716;28;1141;-58
2023/03/03 11:16:14;;;;;;;;;;;;;;;15.57;47.68;100874.59;4999110;28;1032;-60
2023/03/03 11:18:49;;;;;;;;;;;;;;;15.44;47.99;100869.59;4998885;28;1329;-58
2023/03/03 11:21:19;;;;;;;;;;;;;;;16.20;45.98;100868.34;4998679;28;1171;-54
2023/03/03 11:23:45;;;;;;;;;;;;;;;17.50;42.95;100843.53;5001396;28;2006;-55
2023/03/03 11:26:16;;;;;;;;;;;;;;;16.49;45.13;100845.94;4998916;28;1125;-58
2023/03/03 11:28:54;;;;;;;;;;;;;;;15.98;46.36;100838.41;4999115;28;1091;-58
2023/03/03 11:31:23;;;;;;;;;;;;;;;15.72;47.03;100833.59;4998537;28;1021;-58
2023/03/03 11:33:52;;;;;;;;;;;;;;;15.55;47.36;100850.19;4998396;28;897;-58
2023/03/03 11:36:24;;;;;;;;;;;;;;;15.39;47.98;100846.53;4999063;28;1128;-57
2023/03/03 11:38:49;;;;;;;;;;;;;;;16.37;45.47;100838.78;4998921;28;1107;-58
2023/03/03 11:41:18;;;;;;;;;;;;;;;17.52;42.89;100835.81;4998785;28;1029;-58
2023/03/03 11:43:45;;;;;;;;;;;;;;;16.56;45.08;100841.03;5013137;28;1985;-57
2023/03/03 11:46:12;;;;;;;;;;;;;;;16.03;46.11;100838.41;5013687;28;1175;-58
2023/03/03 11:48:53;;;;;;;;;;;;;;;15.77;47.14;100837.41;5013107;28;1441;-58
2023/03/03 11:51:21;;;;;;;;;;;;;;;15.55;47.35;100833.75;4998594;28;1163;-58
2023/03/03 11:53:57;;;;;;;;;;;;;;;15.45;47.52;100828.22;4997944;28;1095;-58
2023/03/03 11:56:27;;;;;;;;;;;;;;;16.06;46.35;100827.72;5013742;28;1116;-58
2023/03/03 11:59:01;;;;;;;;;;;;;;;17.43;43.05;100826.47;4997728;28;927;-55
2023/03/03 12:01:38;;;;;;;;;;;;;;;16.72;44.64;100825.41;4998919;28;1985;-61
2023/03/03 12:04:06;;;;;;;;;;;;;;;16.02;46.34;100832.09;4998605;28;1041;-56
2023/03/03 12:06:39;;;;;;;;;;;;;;;15.77;47.00;100838.25;5014301;28;1084;-57
2023/03/03 12:09:08;;;;;;;;;;;;;;;15.62;47.29;100829.97;4999385;28;1056;-60
2023/03/03 12:11:38;;;;;;;;;;;;;;;15.46;47.79;100829.88;4988840;28;1065;-49
2023/03/03 12:14:22;;;;;;;;;;;;;;;15.36;48.07;100825.16;4998858;28;1028;-55
2023/03/03 12:16:51;;;;;;;;;;;;;;;17.05;44.05;100815.00;4999040;28;1087;-60
2023/03/03 12:19:16;;;;;;;;;;;;;;;16.81;44.24;100815.50;5014370;28;1163;-56
2023/03/03 12:22:12;;;;;;;;;;;;;;;16.07;45.98;100812.94;4998991;28;1902;-55
2023/03/03 12:24:43;;;;;;;;;;;;;;;15.68;47.01;100815.19;4977847;28;1040;-50
2023/03/03 12:27:22;;;;;;;;;;;;;;;15.51;47.41;100818.91;5009204;28;1056;-55
2023/03/03 12:29:58;;;;;;;;;;;;;;;15.35;47.78;100815.28;5014296;28;893;-55
2023/03/03 12:32:42;;;;;;;;;;;;;;;16.64;44.85;100821.28;5013514;28;1155;-56
2023/03/03 12:35:11;;;;;;;;;;;;;;;17.02;43.89;100818.28;4998129;28;1054;-51
2023/03/03 12:37:36;;;;;;;;;;;;;;;16.08;45.95;100813.75;4998967;28;1180;-56
2023/03/03 12:40:02;;;;;;;;;;;;;;;15.75;46.97;100818.50;4999013;28;1092;-56
2023/03/03 12:42:46;;;;;;;;;;;;;;;15.57;47.34;100819.78;4998334;28;1898;-56
2023/03/03 12:45:23;;;;;;;;;;;;;;;15.80;47.00;100820.50;4998076;28;1025;-55
2023/03/03 12:47:59;;;;;;;;;;;;;;;17.39;42.97;100820.72;4998760;28;1239;-52
2023/03/03 12:50:27;;;;;;;;;;;;;;;16.52;44.85;100824.28;4998635;28;1029;-48
2023/03/03 12:53:00;;;;;;;;;;;;;;;15.97;46.50;100823.84;5013836;28;1086;-53
2023/03/03 12:55:47;;;;;;;;;;;;;;;15.73;46.91;100817.94;5013783;28;1143;-53